createdAt,value
2022-11-13T00:00:05.174Z,6.68
2022-11-13T00:01:05.166Z,6.59
2022-11-13T00:02:05.254Z,6.56
2022-11-13T00:03:05.137Z,6.58
2022-11-13T00:04:05.136Z,6.54
2022-11-13T00:05:05.119Z,6.59
2022-11-13T00:06:05.099Z,6.54
2022-11-13T00:07:05.175Z,6.44
2022-11-13T00:08:05.085Z,6.43
2022-11-13T00:09:05.057Z,6.32
2022-11-13T00:10:05.056Z,6.32
2022-11-13T00:11:05.048Z,6.26
2022-11-13T00:12:05.037Z,6.29
2022-11-13T00:13:05.075Z,6.35
2022-11-13T00:14:05.007Z,6.32
2022-11-13T00:15:05.004Z,6.28
2022-11-13T00:16:04.998Z,6.28
2022-11-13T00:17:04.992Z,6.26
2022-11-13T00:18:04.976Z,6.19
2022-11-13T00:19:04.987Z,6.22
2022-11-13T00:20:04.986Z,6.25
2022-11-13T00:21:04.937Z,6.19
2022-11-13T00:22:04.918Z,6.25
2022-11-13T00:23:04.907Z,6.19
2022-11-13T00:24:04.896Z,6.09
2022-11-13T00:25:04.915Z,6.28
2022-11-13T00:26:04.877Z,6.10
2022-11-13T00:27:04.881Z,6.10
2022-11-13T00:28:04.860Z,6.21
2022-11-13T00:29:04.838Z,6.18
2022-11-13T00:30:04.870Z,6.11
2022-11-13T00:31:04.880Z,6.16
2022-11-13T00:32:04.810Z,6.21
2022-11-13T00:33:04.786Z,6.18
2022-11-13T00:34:25.829Z,6.09
2022-11-13T00:35:05.776Z,6.14
2022-11-13T00:36:04.759Z,6.11
2022-11-13T00:37:04.767Z,6.11
2022-11-13T00:38:04.743Z,6.21
2022-11-13T00:39:04.727Z,6.22
2022-11-13T00:40:04.712Z,6.21
2022-11-13T00:41:04.691Z,6.30
2022-11-13T00:42:04.699Z,6.30
2022-11-13T00:43:04.702Z,6.29
2022-11-13T00:44:04.669Z,6.30
2022-11-13T00:45:04.651Z,6.29
2022-11-13T00:46:04.650Z,6.35
2022-11-13T00:47:04.638Z,6.36
2022-11-13T00:48:04.661Z,6.30
2022-11-13T00:49:04.604Z,6.19
2022-11-13T00:50:04.600Z,6.25
2022-11-13T00:51:04.599Z,6.19
2022-11-13T00:52:04.567Z,6.09
2022-11-13T00:53:04.558Z,6.18
2022-11-13T00:54:04.581Z,6.16
2022-11-13T00:55:04.541Z,6.07
2022-11-13T00:56:04.533Z,6.04
2022-11-13T00:57:04.527Z,6.13
2022-11-13T00:58:04.509Z,6.07
2022-11-13T00:59:04.500Z,6.09
2022-11-13T01:00:04.510Z,6.13
2022-11-13T01:01:04.469Z,6.10
2022-11-13T01:02:04.510Z,6.13
2022-11-13T01:03:04.444Z,6.16
2022-11-13T01:04:04.433Z,6.16
2022-11-13T01:05:04.422Z,6.29
2022-11-13T01:06:04.464Z,6.32
2022-11-13T01:07:04.445Z,6.29
2022-11-13T01:08:04.411Z,6.35
2022-11-13T01:09:04.380Z,6.36
2022-11-13T01:10:04.361Z,6.44
2022-11-13T01:11:04.360Z,6.44
2022-11-13T01:12:04.385Z,6.43
2022-11-13T01:13:04.322Z,6.47
2022-11-13T01:14:04.332Z,6.48
2022-11-13T01:15:04.341Z,6.46
2022-11-13T01:16:04.323Z,6.38
2022-11-13T01:17:04.383Z,6.35
2022-11-13T01:18:04.323Z,6.29
2022-11-13T01:19:04.320Z,6.33
2022-11-13T01:20:04.330Z,6.29
2022-11-13T01:21:04.300Z,6.26
2022-11-13T01:22:04.301Z,6.30
2022-11-13T01:23:04.215Z,6.22
2022-11-13T01:24:04.326Z,6.18
2022-11-13T01:25:04.257Z,6.19
2022-11-13T01:26:04.309Z,6.29
2022-11-13T01:27:04.220Z,6.21
2022-11-13T01:28:04.175Z,6.09
2022-11-13T01:29:04.218Z,6.14
2022-11-13T01:30:04.204Z,6.16
2022-11-13T01:31:04.122Z,6.07
2022-11-13T01:32:04.209Z,6.00
2022-11-13T01:33:04.182Z,6.11
2022-11-13T01:34:04.198Z,6.01
2022-11-13T01:35:04.214Z,6.03
2022-11-13T01:36:04.176Z,5.98
2022-11-13T01:37:04.055Z,5.86
2022-11-13T01:38:04.034Z,5.75
2022-11-13T01:39:04.034Z,5.81
2022-11-13T01:40:04.024Z,5.85
2022-11-13T01:41:04.043Z,5.96
2022-11-13T01:42:04.006Z,6.03
2022-11-13T01:43:03.987Z,5.89
2022-11-13T01:44:03.974Z,5.82
2022-11-13T01:45:03.954Z,5.83
2022-11-13T01:46:03.954Z,5.88
2022-11-13T01:47:03.965Z,5.74
2022-11-13T01:48:03.926Z,5.77
2022-11-13T01:49:03.914Z,5.70
2022-11-13T01:50:03.910Z,5.50
2022-11-13T01:51:03.894Z,5.53
2022-11-13T01:52:03.882Z,5.50
2022-11-13T01:53:03.910Z,5.48
2022-11-13T01:54:03.866Z,5.49
2022-11-13T01:55:03.856Z,5.49
2022-11-13T01:56:03.836Z,5.60
2022-11-13T01:57:03.837Z,5.60
2022-11-13T01:58:03.846Z,5.55
2022-11-13T01:59:03.818Z,5.50
2022-11-13T02:00:03.812Z,5.41
2022-11-13T02:01:03.788Z,5.45
2022-11-13T02:02:03.814Z,5.31
2022-11-13T02:03:03.774Z,5.19
2022-11-13T02:04:03.806Z,5.19
2022-11-13T02:05:03.737Z,5.13
2022-11-13T02:06:03.733Z,5.17
2022-11-13T02:07:03.780Z,5.28
2022-11-13T02:08:03.702Z,5.35
2022-11-13T02:09:03.697Z,5.37
2022-11-13T02:10:03.710Z,5.45
2022-11-13T02:11:03.668Z,5.46
2022-11-13T02:12:03.679Z,5.50
2022-11-13T02:13:03.649Z,5.45
2022-11-13T02:14:03.660Z,5.48
2022-11-13T02:15:03.628Z,5.43
2022-11-13T02:16:03.654Z,5.43
2022-11-13T02:17:03.595Z,5.40
2022-11-13T02:18:03.590Z,5.37
2022-11-13T02:19:03.601Z,5.41
2022-11-13T02:20:03.598Z,5.37
2022-11-13T02:21:03.586Z,5.37
2022-11-13T02:22:03.560Z,5.52
2022-11-13T02:23:03.546Z,5.32
2022-11-13T02:24:03.535Z,5.23
2022-11-13T02:25:03.508Z,5.35
2022-11-13T02:26:03.497Z,5.35
2022-11-13T02:27:03.553Z,5.37
2022-11-13T02:28:03.487Z,5.31
2022-11-13T02:29:03.478Z,5.27
2022-11-13T02:30:03.468Z,5.30
2022-11-13T02:31:03.449Z,5.34
2022-11-13T02:32:03.496Z,5.45
2022-11-13T02:33:03.446Z,5.40
2022-11-13T02:34:03.440Z,5.46
2022-11-13T02:35:03.417Z,5.37
2022-11-13T02:36:03.388Z,5.43
2022-11-13T02:37:03.398Z,5.52
2022-11-13T02:38:03.414Z,5.40
2022-11-13T02:39:03.363Z,5.34
2022-11-13T02:40:03.338Z,5.45
2022-11-13T02:41:03.349Z,5.41
2022-11-13T02:42:03.340Z,5.43
2022-11-13T02:43:03.349Z,5.41
2022-11-13T02:44:03.314Z,5.55
2022-11-13T02:45:03.298Z,5.55
2022-11-13T02:46:03.292Z,5.52
2022-11-13T02:47:03.270Z,5.43
2022-11-13T02:48:03.303Z,5.32
2022-11-13T02:49:03.261Z,5.46
2022-11-13T02:50:03.229Z,5.49
2022-11-13T02:51:03.220Z,5.53
2022-11-13T02:52:03.221Z,5.56
2022-11-13T02:53:03.224Z,5.59
2022-11-13T02:54:03.245Z,5.66
2022-11-13T02:55:03.191Z,5.63
2022-11-13T02:56:03.188Z,5.59
2022-11-13T02:57:03.150Z,5.48
2022-11-13T02:58:03.159Z,5.57
2022-11-13T02:59:03.162Z,5.49
2022-11-13T03:00:03.180Z,5.50
2022-11-13T03:01:03.123Z,5.52
2022-11-13T03:02:03.163Z,5.59
2022-11-13T03:03:03.122Z,5.52
2022-11-13T03:04:03.070Z,5.52
2022-11-13T03:05:11.934Z,5.63
2022-11-13T03:06:04.050Z,5.66
2022-11-13T03:07:03.090Z,5.66
2022-11-13T03:08:03.033Z,5.68
2022-11-13T03:09:03.031Z,5.59
2022-11-13T03:10:03.044Z,5.55
2022-11-13T03:11:02.998Z,5.55
2022-11-13T03:12:02.996Z,5.59
2022-11-13T03:13:03.000Z,5.59
2022-11-13T03:14:02.972Z,5.59
2022-11-13T03:15:02.950Z,5.57
2022-11-13T03:16:03.180Z,5.63
2022-11-13T03:17:02.931Z,5.53
2022-11-13T03:18:02.921Z,5.49
2022-11-13T03:19:02.941Z,5.57
2022-11-13T03:20:02.903Z,5.59
2022-11-13T03:21:02.921Z,5.52
2022-11-13T03:22:02.902Z,5.52
2022-11-13T03:23:02.873Z,5.49
2022-11-13T03:24:02.881Z,5.52
2022-11-13T03:25:07.439Z,5.48
2022-11-13T03:26:03.863Z,5.40
2022-11-13T03:27:03.592Z,5.50
2022-11-13T03:28:02.811Z,5.57
2022-11-13T03:29:02.830Z,5.50
2022-11-13T03:30:02.819Z,5.56
2022-11-13T03:31:02.782Z,5.50
2022-11-13T03:32:02.826Z,5.43
2022-11-13T03:33:02.760Z,5.46
2022-11-13T03:34:02.743Z,5.38
2022-11-13T03:35:02.723Z,5.41
2022-11-13T03:36:02.736Z,5.41
2022-11-13T03:37:02.734Z,5.28
2022-11-13T03:38:02.704Z,5.30
2022-11-13T03:39:02.697Z,5.34
2022-11-13T03:40:02.736Z,5.41
2022-11-13T03:41:02.673Z,5.52
2022-11-13T03:42:02.676Z,5.53
2022-11-13T03:43:02.644Z,5.50
2022-11-13T03:44:02.636Z,5.43
2022-11-13T03:45:02.618Z,5.40
2022-11-13T03:46:02.615Z,5.37
2022-11-13T03:47:02.594Z,5.32
2022-11-13T03:48:02.616Z,5.35
2022-11-13T03:49:02.573Z,5.25
2022-11-13T03:50:02.574Z,5.28
2022-11-13T03:51:02.575Z,5.16
2022-11-13T03:52:02.545Z,5.16
2022-11-13T03:53:02.565Z,5.17
2022-11-13T03:54:02.515Z,5.19
2022-11-13T03:55:02.510Z,5.28
2022-11-13T03:56:02.495Z,5.20
2022-11-13T03:57:02.493Z,5.19
2022-11-13T03:58:02.483Z,5.28
2022-11-13T03:59:02.505Z,5.16
2022-11-13T04:00:02.455Z,5.14
2022-11-13T04:01:02.451Z,5.10
2022-11-13T04:02:02.485Z,5.16
2022-11-13T04:03:02.430Z,5.16
2022-11-13T04:04:02.452Z,5.17
2022-11-13T04:05:02.401Z,5.17
2022-11-13T04:06:02.387Z,5.14
2022-11-13T04:07:02.437Z,5.20
2022-11-13T04:08:02.364Z,5.14
2022-11-13T04:09:02.358Z,5.16
2022-11-13T04:10:02.410Z,5.17
2022-11-13T04:11:02.354Z,5.19
2022-11-13T04:12:02.324Z,5.16
2022-11-13T04:13:02.327Z,5.17
2022-11-13T04:14:02.301Z,5.14
2022-11-13T04:15:02.357Z,5.22
2022-11-13T04:16:02.302Z,5.25
2022-11-13T04:17:02.265Z,5.20
2022-11-13T04:18:02.245Z,5.17
2022-11-13T04:19:02.267Z,5.10
2022-11-13T04:20:02.225Z,5.19
2022-11-13T04:21:02.281Z,5.23
2022-11-13T04:22:02.216Z,5.19
2022-11-13T04:23:02.225Z,5.17
2022-11-13T04:24:02.191Z,5.16
2022-11-13T04:25:02.184Z,5.09
2022-11-13T04:26:02.199Z,5.19
2022-11-13T04:27:02.157Z,5.07
2022-11-13T04:28:02.167Z,5.10
2022-11-13T04:29:02.137Z,5.04
2022-11-13T04:30:02.142Z,4.95
2022-11-13T04:31:02.154Z,5.12
2022-11-13T04:32:02.406Z,5.25
2022-11-13T04:33:02.186Z,5.07
2022-11-13T04:34:02.111Z,5.01
2022-11-13T04:35:02.072Z,5.04
2022-11-13T04:36:02.052Z,4.89
2022-11-13T04:37:02.116Z,4.84
2022-11-13T04:38:02.059Z,4.89
2022-11-13T04:39:02.034Z,4.84
2022-11-13T04:40:02.079Z,4.95
2022-11-13T04:41:02.009Z,4.98
2022-11-13T04:42:02.026Z,5.01
2022-11-13T04:43:02.012Z,4.96
2022-11-13T04:44:01.961Z,4.99
2022-11-13T04:45:01.961Z,5.12
2022-11-13T04:46:01.966Z,5.07
2022-11-13T04:47:01.956Z,5.10
2022-11-13T04:48:01.947Z,5.16
2022-11-13T04:49:01.917Z,4.99
2022-11-13T04:50:01.902Z,5.10
2022-11-13T04:51:01.888Z,5.12
2022-11-13T04:52:01.879Z,5.22
2022-11-13T04:53:01.858Z,5.19
2022-11-13T04:54:01.881Z,5.09
2022-11-13T04:55:01.851Z,5.05
2022-11-13T04:56:01.838Z,5.09
2022-11-13T04:57:01.821Z,5.14
2022-11-13T04:58:01.832Z,5.04
2022-11-13T04:59:01.839Z,5.05
2022-11-13T05:00:01.802Z,5.04
2022-11-13T05:01:01.779Z,5.12
2022-11-13T05:02:01.831Z,5.07
2022-11-13T05:03:01.758Z,5.10
2022-11-13T05:04:01.750Z,5.07
2022-11-13T05:05:05.005Z,5.07
2022-11-13T05:06:01.738Z,5.09
2022-11-13T05:07:01.768Z,5.19
2022-11-13T05:08:01.701Z,5.13
2022-11-13T05:09:01.714Z,5.20
2022-11-13T05:10:01.734Z,5.16
2022-11-13T05:11:01.673Z,5.20
2022-11-13T05:12:01.659Z,5.27
2022-11-13T05:13:01.648Z,5.25
2022-11-13T05:14:03.561Z,5.30
2022-11-13T05:15:01.639Z,5.31
2022-11-13T05:16:01.660Z,5.27
2022-11-13T05:17:01.615Z,5.19
2022-11-13T05:18:01.597Z,5.22
2022-11-13T05:19:01.579Z,5.14
2022-11-13T05:20:01.571Z,5.12
2022-11-13T05:21:01.589Z,5.05
2022-11-13T05:22:01.578Z,5.16
2022-11-13T05:23:01.559Z,5.12
2022-11-13T05:24:01.529Z,5.17
2022-11-13T05:25:01.509Z,5.25
2022-11-13T05:26:01.510Z,5.28
2022-11-13T05:27:01.511Z,5.28
2022-11-13T05:28:01.489Z,5.30
2022-11-13T05:29:01.502Z,5.22
2022-11-13T05:30:01.474Z,5.25
2022-11-13T05:31:01.531Z,5.27
2022-11-13T05:32:01.520Z,5.20
2022-11-13T05:33:01.461Z,5.12
2022-11-13T05:34:05.691Z,5.09
2022-11-13T05:35:01.425Z,5.17
2022-11-13T05:36:01.383Z,5.31
2022-11-13T05:37:01.371Z,5.25
2022-11-13T05:38:01.371Z,5.28
2022-11-13T05:39:01.361Z,5.19
2022-11-13T05:40:01.341Z,5.14
2022-11-13T05:41:01.322Z,5.16
2022-11-13T05:42:01.329Z,5.20
2022-11-13T05:43:01.331Z,5.23
2022-11-13T05:44:01.436Z,5.27
2022-11-13T05:45:01.321Z,5.31
2022-11-13T05:46:01.281Z,5.23
2022-11-13T05:47:01.262Z,5.17
2022-11-13T05:48:01.251Z,5.10
2022-11-13T05:49:01.268Z,5.16
2022-11-13T05:50:01.241Z,5.07
2022-11-13T05:51:01.220Z,5.04
2022-11-13T05:52:01.214Z,4.96
2022-11-13T05:53:01.191Z,4.96
2022-11-13T05:54:01.209Z,4.88
2022-11-13T05:55:01.189Z,5.02
2022-11-13T05:56:01.172Z,5.02
2022-11-13T05:57:01.168Z,5.02
2022-11-13T05:58:01.171Z,5.14
2022-11-13T05:59:01.154Z,5.13
2022-11-13T06:00:01.171Z,5.17
2022-11-13T06:01:01.120Z,5.16
2022-11-13T06:02:01.216Z,5.17
2022-11-13T06:03:01.092Z,5.13
2022-11-13T06:04:01.094Z,5.07
2022-11-13T06:05:01.090Z,5.13
2022-11-13T06:06:01.056Z,5.09
2022-11-13T06:07:01.091Z,5.07
2022-11-13T06:08:01.033Z,5.05
2022-11-13T06:09:01.012Z,5.05
2022-11-13T06:10:01.080Z,4.99
2022-11-13T06:11:01.013Z,4.92
2022-11-13T06:12:00.985Z,4.99
2022-11-13T06:13:00.970Z,4.80
2022-11-13T06:14:00.964Z,4.83
2022-11-13T06:15:00.941Z,4.91
2022-11-13T06:16:00.974Z,4.73
2022-11-13T06:17:00.928Z,4.92
2022-11-13T06:18:00.931Z,4.92
2022-11-13T06:19:00.901Z,4.61
2022-11-13T06:20:00.937Z,4.58
2022-11-13T06:21:00.884Z,4.57
2022-11-13T06:22:00.903Z,4.52
2022-11-13T06:23:00.863Z,4.52
2022-11-13T06:24:00.848Z,4.64
2022-11-13T06:25:00.834Z,4.59
2022-11-13T06:26:00.836Z,4.34
2022-11-13T06:27:00.851Z,4.50
2022-11-13T06:28:00.805Z,4.57
2022-11-13T06:29:00.801Z,4.54
2022-11-13T06:30:00.816Z,4.55
2022-11-13T06:31:00.774Z,4.47
2022-11-13T06:32:00.773Z,4.51
2022-11-13T06:33:00.793Z,4.55
2022-11-13T06:34:00.745Z,4.54
2022-11-13T06:35:00.785Z,4.37
2022-11-13T06:36:00.717Z,4.21
2022-11-13T06:37:01.878Z,4.29
2022-11-13T06:38:00.691Z,4.32
2022-11-13T06:39:00.810Z,4.47
2022-11-13T06:40:00.691Z,4.46
2022-11-13T06:41:00.655Z,4.44
2022-11-13T06:42:00.655Z,4.36
2022-11-13T06:43:00.647Z,4.44
2022-11-13T06:44:03.032Z,4.51
2022-11-13T06:45:00.660Z,4.42
2022-11-13T06:46:00.616Z,4.44
2022-11-13T06:47:00.595Z,4.54
2022-11-13T06:48:00.608Z,4.67
2022-11-13T06:49:00.579Z,4.76
2022-11-13T06:50:00.567Z,4.64
2022-11-13T06:51:00.566Z,4.54
2022-11-13T06:52:00.551Z,4.61
2022-11-13T06:53:00.527Z,4.50
2022-11-13T06:54:00.534Z,4.64
2022-11-13T06:55:00.522Z,4.65
2022-11-13T06:56:00.534Z,4.70
2022-11-13T06:57:00.486Z,4.70
2022-11-13T06:58:00.484Z,4.73
2022-11-13T06:59:00.517Z,4.84
2022-11-13T07:00:00.469Z,4.84
2022-11-13T07:01:00.495Z,4.76
2022-11-13T07:02:00.469Z,4.70
2022-11-13T07:03:00.432Z,4.77
2022-11-13T07:04:00.429Z,4.89
2022-11-13T07:05:00.406Z,4.95
2022-11-13T07:06:00.401Z,5.01
2022-11-13T07:07:00.506Z,5.05
2022-11-13T07:08:00.407Z,5.02
2022-11-13T07:09:00.360Z,5.04
2022-11-13T07:10:00.349Z,5.19
2022-11-13T07:11:00.336Z,5.19
2022-11-13T07:12:00.319Z,5.14
2022-11-13T07:13:00.496Z,5.16
2022-11-13T07:14:00.301Z,5.13
2022-11-13T07:15:00.300Z,5.05
2022-11-13T07:16:05.829Z,5.10
2022-11-13T07:17:10.414Z,5.07
2022-11-13T07:18:01.300Z,5.16
2022-11-13T07:19:00.270Z,5.19
2022-11-13T07:20:00.250Z,5.28
2022-11-13T07:21:00.250Z,5.19
2022-11-13T07:22:00.229Z,5.05
2022-11-13T07:23:00.212Z,5.02
2022-11-13T07:24:00.216Z,5.09
2022-11-13T07:25:00.219Z,5.05
2022-11-13T07:26:00.170Z,5.17
2022-11-13T07:27:00.660Z,5.16
2022-11-13T07:28:01.179Z,5.16
2022-11-13T07:29:00.139Z,5.22
2022-11-13T07:30:03.532Z,5.17
2022-11-13T07:31:00.163Z,5.32
2022-11-13T07:32:00.110Z,5.46
2022-11-13T07:33:00.100Z,5.38
2022-11-13T07:34:00.101Z,5.37
2022-11-13T07:35:00.089Z,5.38
2022-11-13T07:36:00.095Z,5.37
2022-11-13T07:37:00.089Z,5.31
2022-11-13T07:38:00.051Z,5.41
2022-11-13T07:39:00.480Z,5.43
2022-11-13T07:40:00.024Z,5.56
2022-11-13T07:41:00.014Z,5.66
2022-11-13T07:42:00.050Z,5.53
2022-11-13T07:42:59.993Z,5.56
2022-11-13T07:43:59.971Z,5.48
2022-11-13T07:44:59.976Z,5.41
2022-11-13T07:45:59.960Z,5.41
2022-11-13T07:46:59.968Z,5.45
2022-11-13T07:47:59.966Z,5.48
2022-11-13T07:48:59.924Z,5.59
2022-11-13T07:50:05.595Z,5.73
2022-11-13T07:51:00.914Z,5.82
2022-11-13T07:51:59.884Z,5.77
2022-11-13T07:52:59.880Z,5.74
2022-11-13T07:53:59.887Z,5.78
2022-11-13T07:54:59.860Z,5.78
2022-11-13T07:55:59.858Z,5.85
2022-11-13T07:56:59.835Z,5.75
2022-11-13T07:57:59.823Z,5.88
2022-11-13T07:58:59.809Z,5.83
2022-11-13T07:59:59.866Z,5.81
2022-11-13T08:00:59.808Z,5.96
2022-11-13T08:01:59.773Z,5.95
2022-11-13T08:02:59.761Z,6.01
2022-11-13T08:03:59.755Z,6.01
2022-11-13T08:04:59.739Z,6.10
2022-11-13T08:05:59.743Z,6.26
2022-11-13T08:06:59.754Z,6.16
2022-11-13T08:07:59.704Z,6.06
2022-11-13T08:08:59.858Z,5.92
2022-11-13T08:10:01.345Z,6.01
2022-11-13T08:11:00.087Z,6.09
2022-11-13T08:11:59.666Z,6.22
2022-11-13T08:12:59.638Z,6.03
2022-11-13T08:13:59.635Z,6.01
2022-11-13T08:14:59.633Z,6.07
2022-11-13T08:15:59.607Z,6.07
2022-11-13T08:16:59.613Z,6.22
2022-11-13T08:17:59.585Z,6.41
2022-11-13T08:18:59.576Z,6.32
2022-11-13T08:19:59.574Z,6.40
2022-11-13T08:20:59.576Z,6.62
2022-11-13T08:21:59.569Z,6.58
2022-11-13T08:22:59.537Z,6.68
2022-11-13T08:23:59.526Z,6.72
2022-11-13T08:24:59.511Z,6.68
2022-11-13T08:25:59.507Z,6.59
2022-11-13T08:26:59.496Z,6.72
2022-11-13T08:27:59.518Z,6.84
2022-11-13T08:28:59.457Z,6.84
2022-11-13T08:29:59.450Z,6.94
2022-11-13T08:30:59.429Z,6.97
2022-11-13T08:31:59.424Z,6.99
2022-11-13T08:32:59.460Z,7.07
2022-11-13T08:33:59.410Z,7.15
2022-11-13T08:34:59.396Z,7.22
2022-11-13T08:35:59.378Z,7.12
2022-11-13T08:36:59.366Z,7.19
2022-11-13T08:37:59.379Z,7.31
2022-11-13T08:38:59.398Z,7.38
2022-11-13T08:39:59.344Z,7.40
2022-11-13T08:41:01.217Z,7.47
2022-11-13T08:41:59.319Z,7.62
2022-11-13T08:42:59.305Z,7.71
2022-11-13T08:43:59.320Z,7.69
2022-11-13T08:44:59.335Z,7.67
2022-11-13T08:45:59.278Z,7.93
2022-11-13T08:46:59.275Z,7.92
2022-11-13T08:47:59.249Z,7.99
2022-11-13T08:48:59.252Z,8.10
2022-11-13T08:49:59.247Z,8.10
2022-11-13T08:50:59.241Z,8.11
2022-11-13T08:51:59.208Z,8.11
2022-11-13T08:52:59.224Z,7.97
2022-11-13T08:53:59.189Z,8.07
2022-11-13T08:54:59.168Z,8.30
2022-11-13T08:55:59.149Z,8.32
2022-11-13T08:57:03.267Z,8.33
2022-11-13T08:58:00.162Z,8.40
2022-11-13T08:58:59.164Z,8.48
2022-11-13T08:59:59.115Z,8.62
2022-11-13T09:00:59.112Z,8.62
2022-11-13T09:01:59.216Z,8.65
2022-11-13T09:02:59.080Z,8.68
2022-11-13T09:03:59.105Z,8.71
2022-11-13T09:04:59.068Z,8.55
2022-11-13T09:05:59.050Z,8.63
2022-11-13T09:06:59.085Z,8.60
2022-11-13T09:07:59.043Z,8.69
2022-11-13T09:08:59.019Z,8.68
2022-11-13T09:09:59.001Z,8.66
2022-11-13T09:10:58.982Z,8.73
2022-11-13T09:11:58.986Z,8.86
2022-11-13T09:12:58.985Z,8.88
2022-11-13T09:13:59.109Z,8.63
2022-11-13T09:14:58.931Z,8.72
2022-11-13T09:15:58.930Z,8.76
2022-11-13T09:16:58.987Z,8.66
2022-11-13T09:17:58.901Z,8.76
2022-11-13T09:18:58.902Z,8.66
2022-11-13T09:20:03.686Z,8.71
2022-11-13T09:20:59.879Z,8.94
2022-11-13T09:21:58.861Z,8.73
2022-11-13T09:22:58.854Z,8.75
2022-11-13T09:23:58.835Z,8.51
2022-11-13T09:24:58.869Z,8.40
2022-11-13T09:25:58.840Z,8.57
2022-11-13T09:26:59.582Z,8.79
2022-11-13T09:27:58.783Z,8.66
2022-11-13T09:28:58.787Z,8.75
2022-11-13T09:29:58.779Z,8.81
2022-11-13T09:30:58.793Z,8.96
2022-11-13T09:31:58.752Z,9.24
2022-11-13T09:32:58.752Z,9.25
2022-11-13T09:33:58.723Z,9.12
2022-11-13T09:34:58.706Z,9.24
2022-11-13T09:35:58.716Z,9.64
2022-11-13T09:36:58.723Z,9.82
2022-11-13T09:37:58.682Z,9.86
2022-11-13T09:38:58.664Z,9.68
2022-11-13T09:39:58.655Z,9.57
2022-11-13T09:40:58.655Z,9.70
2022-11-13T09:41:58.928Z,10.01
2022-11-13T09:42:58.657Z,10.07
2022-11-13T09:44:00.130Z,10.26
2022-11-13T09:44:58.615Z,10.34
2022-11-13T09:45:58.598Z,10.07
2022-11-13T09:46:58.595Z,10.01
2022-11-13T09:47:58.596Z,10.14
2022-11-13T09:48:58.556Z,10.01
2022-11-13T09:49:58.534Z,9.82
2022-11-13T09:50:58.539Z,9.85
2022-11-13T09:52:00.664Z,9.91
2022-11-13T09:52:59.545Z,10.10
2022-11-13T09:53:58.528Z,10.28
2022-11-13T09:54:58.510Z,10.36
2022-11-13T09:55:58.475Z,10.39
2022-11-13T09:56:58.465Z,10.58
2022-11-13T09:57:58.457Z,10.60
2022-11-13T09:58:58.436Z,10.24
2022-11-13T09:59:58.457Z,10.30
2022-11-13T10:00:58.568Z,10.19
2022-11-13T10:01:58.397Z,10.22
2022-11-13T10:02:58.398Z,10.46
2022-11-13T10:04:02.452Z,10.60
2022-11-13T10:04:59.627Z,10.63
2022-11-13T10:05:58.357Z,10.63
2022-11-13T10:06:58.392Z,10.77
2022-11-13T10:07:58.349Z,10.76
2022-11-13T10:08:58.343Z,10.68
2022-11-13T10:09:58.309Z,10.89
2022-11-13T10:10:58.342Z,10.91
2022-11-13T10:11:58.288Z,10.86
2022-11-13T10:12:58.300Z,11.06
2022-11-13T10:13:58.277Z,11.24
2022-11-13T10:14:58.259Z,11.19
2022-11-13T10:15:58.240Z,10.96
2022-11-13T10:16:58.299Z,10.81
2022-11-13T10:17:58.252Z,11.07
2022-11-13T10:18:58.218Z,11.25
2022-11-13T10:19:58.207Z,11.19
2022-11-13T10:20:58.206Z,11.19
2022-11-13T10:22:07.674Z,11.27
2022-11-13T10:22:59.180Z,11.10
2022-11-13T10:23:58.202Z,11.24
2022-11-13T10:24:58.147Z,10.86
2022-11-13T10:25:58.141Z,10.68
2022-11-13T10:26:58.139Z,10.89
2022-11-13T10:27:58.269Z,11.10
2022-11-13T10:28:58.170Z,11.27
2022-11-13T10:29:58.115Z,11.31
2022-11-13T10:30:58.073Z,11.20
2022-11-13T10:31:58.097Z,11.34
2022-11-13T10:32:58.059Z,11.35
2022-11-13T10:33:58.061Z,11.52
2022-11-13T10:34:58.045Z,11.70
2022-11-13T10:35:58.035Z,11.64
2022-11-13T10:36:58.014Z,11.43
2022-11-13T10:37:59.285Z,11.62
2022-11-13T10:38:58.046Z,11.75
2022-11-13T10:39:58.088Z,11.53
2022-11-13T10:40:57.964Z,11.50
2022-11-13T10:41:57.952Z,11.35
2022-11-13T10:42:57.973Z,11.25
2022-11-13T10:43:57.956Z,11.47
2022-11-13T10:44:57.985Z,11.53
2022-11-13T10:45:57.902Z,11.34
2022-11-13T10:46:57.892Z,11.19
2022-11-13T10:48:04.125Z,11.34
2022-11-13T10:48:58.863Z,11.53
2022-11-13T10:49:57.853Z,11.71
2022-11-13T10:50:57.876Z,11.68
2022-11-13T10:51:57.835Z,11.85
2022-11-13T10:52:57.850Z,12.06
2022-11-13T10:53:57.818Z,12.01
2022-11-13T10:54:57.795Z,11.94
2022-11-13T10:55:57.807Z,12.06
2022-11-13T10:56:57.804Z,11.96
2022-11-13T10:57:57.765Z,12.08
2022-11-13T10:58:57.747Z,12.13
2022-11-13T10:59:57.736Z,12.31
2022-11-13T11:00:57.788Z,12.34
2022-11-13T11:01:57.755Z,12.30
2022-11-13T11:02:57.738Z,12.15
2022-11-13T11:03:57.706Z,12.20
2022-11-13T11:04:57.697Z,12.30
2022-11-13T11:05:57.664Z,12.54
2022-11-13T11:07:18.955Z,12.30
2022-11-13T11:07:58.733Z,12.06
2022-11-13T11:08:57.626Z,12.19
2022-11-13T11:09:57.636Z,12.13
2022-11-13T11:10:57.626Z,11.77
2022-11-13T11:11:57.623Z,11.65
2022-11-13T11:12:57.606Z,11.90
2022-11-13T11:13:57.576Z,12.13
2022-11-13T11:14:57.579Z,12.12
2022-11-13T11:15:57.568Z,12.38
2022-11-13T11:16:57.548Z,12.62
2022-11-13T11:17:57.548Z,12.59
2022-11-13T11:18:57.629Z,12.52
2022-11-13T11:19:57.561Z,12.52
2022-11-13T11:20:57.498Z,12.59
2022-11-13T11:21:57.491Z,12.64
2022-11-13T11:22:57.468Z,12.63
2022-11-13T11:23:57.502Z,12.70
2022-11-13T11:24:58.681Z,12.71
2022-11-13T11:25:57.530Z,12.64
2022-11-13T11:26:57.468Z,12.82
2022-11-13T11:27:57.436Z,12.79
2022-11-13T11:28:57.401Z,12.88
2022-11-13T11:29:57.442Z,13.02
2022-11-13T11:30:57.389Z,13.02
2022-11-13T11:31:57.379Z,13.06
2022-11-13T11:32:57.380Z,13.22
2022-11-13T11:33:57.373Z,13.38
2022-11-13T11:34:59.267Z,13.32
2022-11-13T11:35:57.354Z,13.21
2022-11-13T11:36:57.396Z,13.38
2022-11-13T11:37:57.315Z,13.21
2022-11-13T11:38:57.313Z,13.32
2022-11-13T11:39:57.294Z,13.47
2022-11-13T11:40:57.501Z,13.56
2022-11-13T11:41:57.355Z,13.43
2022-11-13T11:42:57.250Z,13.33
2022-11-13T11:43:57.396Z,13.51
2022-11-13T11:44:57.261Z,13.41
2022-11-13T11:45:57.326Z,13.43
2022-11-13T11:46:57.400Z,13.43
2022-11-13T11:47:57.244Z,13.32
2022-11-13T11:48:57.205Z,13.38
2022-11-13T11:49:57.331Z,13.30
2022-11-13T11:50:57.322Z,13.40
2022-11-13T11:51:57.319Z,13.36
2022-11-13T11:52:57.598Z,13.36
2022-11-13T11:53:57.238Z,13.38
2022-11-13T11:54:57.201Z,13.29
2022-11-13T11:55:57.123Z,13.32
2022-11-13T11:56:57.172Z,13.37
2022-11-13T11:57:57.212Z,13.29
2022-11-13T11:58:57.106Z,13.33
2022-11-13T11:59:57.221Z,13.36
2022-11-13T12:00:57.115Z,13.54
2022-11-13T12:01:57.054Z,13.61
2022-11-13T12:02:57.045Z,13.73
2022-11-13T12:03:57.055Z,13.74
2022-11-13T12:04:57.028Z,13.69
2022-11-13T12:05:56.985Z,13.77
2022-11-13T12:06:57.095Z,13.56
2022-11-13T12:07:56.966Z,13.54
2022-11-13T12:08:56.987Z,13.69
2022-11-13T12:09:56.935Z,13.79
2022-11-13T12:10:56.975Z,13.92
2022-11-13T12:11:57.093Z,13.83
2022-11-13T12:12:57.070Z,13.83
2022-11-13T12:13:57.066Z,13.84
2022-11-13T12:14:56.977Z,13.95
2022-11-13T12:15:56.952Z,13.63
2022-11-13T12:16:57.335Z,13.87
2022-11-13T12:17:56.982Z,13.88
2022-11-13T12:18:57.122Z,13.89
2022-11-13T12:19:57.254Z,14.01
2022-11-13T12:20:57.255Z,14.13
2022-11-13T12:21:56.869Z,14.16
2022-11-13T12:22:56.836Z,14.06
2022-11-13T12:23:56.778Z,14.09
2022-11-13T12:24:56.767Z,14.31
2022-11-13T12:25:56.820Z,14.37
2022-11-13T12:26:56.764Z,14.29
2022-11-13T12:27:56.750Z,14.31
2022-11-13T12:28:56.763Z,14.49
2022-11-13T12:29:56.753Z,14.53
2022-11-13T12:30:56.733Z,14.54
2022-11-13T12:31:56.720Z,14.60
2022-11-13T12:32:56.672Z,14.57
2022-11-13T12:34:01.031Z,14.64
2022-11-13T12:34:56.662Z,14.72
2022-11-13T12:35:56.650Z,14.69
2022-11-13T12:36:56.650Z,14.87
2022-11-13T12:37:56.642Z,14.62
2022-11-13T12:38:56.602Z,14.47
2022-11-13T12:39:56.625Z,14.61
2022-11-13T12:40:56.623Z,14.74
2022-11-13T12:41:56.594Z,14.71
2022-11-13T12:42:56.612Z,14.38
2022-11-13T12:43:56.561Z,14.46
2022-11-13T12:44:56.543Z,14.29
2022-11-13T12:45:56.540Z,14.37
2022-11-13T12:46:56.561Z,14.68
2022-11-13T12:47:56.519Z,14.80
2022-11-13T12:48:56.575Z,14.94
2022-11-13T12:49:56.512Z,15.02
2022-11-13T12:50:56.474Z,14.86
2022-11-13T12:51:56.454Z,14.64
2022-11-13T12:52:56.444Z,14.78
2022-11-13T12:53:56.441Z,15.13
2022-11-13T12:54:56.555Z,15.28
2022-11-13T12:55:56.413Z,15.26
2022-11-13T12:56:56.394Z,15.20
2022-11-13T12:57:56.395Z,15.26
2022-11-13T12:59:23.737Z,15.27
2022-11-13T12:59:57.393Z,15.13
2022-11-13T13:00:56.383Z,15.09
2022-11-13T13:01:56.360Z,15.05
2022-11-13T13:02:56.330Z,14.90
2022-11-13T13:03:56.338Z,14.94
2022-11-13T13:04:56.305Z,15.20
2022-11-13T13:05:56.337Z,15.30
2022-11-13T13:06:56.371Z,15.20
2022-11-13T13:07:56.304Z,15.21
2022-11-13T13:08:56.296Z,15.30
2022-11-13T13:09:56.297Z,15.45
2022-11-13T13:10:56.265Z,15.45